CheckWX is a tool to help pilots better visualize weather data.  It is not intended as a substitute for an official pre-flight weather briefing.

02:18:58 UTC

LJPZ METAR
Portoroz Airport
Portoroz, Slovenia
Current

19 mins ago

LJPZ 130200Z AUTO 20007KT 160V220 9999 -SHRA SCT011/// BKN016/// BKN019/// 05/03 Q0999
Observed
Dec-13 @ 02:00 UTC
Wind
  • 200° at 7 KTS
Visibility
10,000+ meters
Flight Rules
MVFR
Conditions
Light Rain
Cloud Levels
  • Scattered at 1,100' AGL
  • Broken at 1,600' AGL
  • Broken at 1,900' AGL
Temperature
C / 41°F
Dewpoint
C / 37°F
Humidity
87%
Altimeter
29.5" Hg
Pressure
998.92 hPa
Previous

49 mins ago

LJPZ 130130Z AUTO 12005KT 9999 -SHRA SCT018/// BKN022/// OVC031/// 04/02 Q0999
Observed
Dec-13 @ 01:30 UTC
Wind
  • 120° at 5 KTS
Visibility
10,000+ meters
Flight Rules
MVFR
Conditions
Light Rain
Cloud Levels
  • Scattered at 1,800' AGL
  • Broken at 2,200' AGL
  • Overcast at 3,100' AGL
Temperature
C / 39°F
Dewpoint
C / 36°F
Humidity
87%
Altimeter
29.5" Hg
Pressure
998.92 hPa
Previous

1 hour ago

LJPZ 130100Z AUTO 14005KT 9999 SCT031/// BKN036/// 04/02 Q0999
Observed
Dec-13 @ 01:00 UTC
Wind
  • 140° at 5 KTS
Visibility
10,000+ meters
Flight Rules
VFR
Cloud Levels
  • Scattered at 3,100' AGL
  • Broken at 3,600' AGL
Temperature
C / 39°F
Dewpoint
C / 36°F
Humidity
87%
Altimeter
29.5" Hg
Pressure
998.92 hPa